sensor_id;sensor_type;location;lat;lon;timestamp;pressure;altitude;pressure_sealevel;temperature;humidity
54910;BME280;63189;51.240;9.964;2023-03-23T00:15:43;96902.31;;;11.13;68.37
54910;BME280;63189;51.240;9.964;2023-03-23T00:18:09;96887.97;;;11.04;68.36
54910;BME280;63189;51.240;9.964;2023-03-23T00:20:46;96879.59;;;10.97;67.86
54910;BME280;63189;51.240;9.964;2023-03-23T00:23:14;96891.03;;;11.12;68.37
54910;BME280;63189;51.240;9.964;2023-03-23T00:25:45;96902.22;;;11.14;68.23
54910;BME280;63189;51.240;9.964;2023-03-23T00:28:10;96886.44;;;11.00;68.05
54910;BME280;63189;51.240;9.964;2023-03-23T00:30:38;96891.34;;;11.06;68.47
54910;BME280;63189;51.240;9.964;2023-03-23T00:33:04;96882.53;;;11.09;68.44
54910;BME280;63189;51.240;9.964;2023-03-23T00:35:29;96889.06;;;11.17;68.10
54910;BME280;63189;51.240;9.964;2023-03-23T00:37:56;96874.16;;;11.19;68.35
54910;BME280;63189;51.240;9.964;2023-03-23T00:40:21;96881.16;;;11.19;67.96
54910;BME280;63189;51.240;9.964;2023-03-23T00:42:47;96851.22;;;11.09;66.90
54910;BME280;63189;51.240;9.964;2023-03-23T00:45:13;96871.25;;;11.25;67.03
54910;BME280;63189;51.240;9.964;2023-03-23T00:47:40;96856.44;;;11.26;66.41
54910;BME280;63189;51.240;9.964;2023-03-23T00:50:12;96856.28;;;11.29;65.49
54910;BME280;63189;51.240;9.964;2023-03-23T00:52:39;96869.72;;;11.39;66.10
54910;BME280;63189;51.240;9.964;2023-03-23T00:55:05;96867.69;;;11.44;65.65
54910;BME280;63189;51.240;9.964;2023-03-23T00:57:31;96861.88;;;11.39;65.65
54910;BME280;63189;51.240;9.964;2023-03-23T00:59:56;96862.47;;;11.44;66.08
54910;BME280;63189;51.240;9.964;2023-03-23T01:02:22;96864.31;;;11.42;65.20
54910;BME280;63189;51.240;9.964;2023-03-23T01:04:50;96864.03;;;11.48;66.00
54910;BME280;63189;51.240;9.964;2023-03-23T01:07:18;96853.81;;;11.43;66.48
54910;BME280;63189;51.240;9.964;2023-03-23T01:09:46;96833.03;;;11.24;66.05
54910;BME280;63189;51.240;9.964;2023-03-23T01:12:11;96819.38;;;11.19;66.25
54910;BME280;63189;51.240;9.964;2023-03-23T01:14:37;96868.31;;;11.49;66.15
54910;BME280;63189;51.240;9.964;2023-03-23T01:17:02;96837.00;;;11.32;66.14
54910;BME280;63189;51.240;9.964;2023-03-23T01:19:28;96867.47;;;11.48;66.08
54910;BME280;63189;51.240;9.964;2023-03-23T01:21:53;96849.44;;;11.44;65.30
54910;BME280;63189;51.240;9.964;2023-03-23T01:24:19;96858.09;;;11.44;66.05
54910;BME280;63189;51.240;9.964;2023-03-23T01:26:45;96858.72;;;11.49;66.00
54910;BME280;63189;51.240;9.964;2023-03-23T01:29:10;96838.84;;;11.47;65.70
54910;BME280;63189;51.240;9.964;2023-03-23T01:31:36;96837.94;;;11.48;66.24
54910;BME280;63189;51.240;9.964;2023-03-23T01:34:02;96849.88;;;11.52;65.96
54910;BME280;63189;51.240;9.964;2023-03-23T01:36:28;96836.75;;;11.53;66.31
54910;BME280;63189;51.240;9.964;2023-03-23T01:38:59;96836.25;;;11.47;69.01
54910;BME280;63189;51.240;9.964;2023-03-23T01:41:26;96815.03;;;11.36;71.42
54910;BME280;63189;51.240;9.964;2023-03-23T01:44:00;96837.19;;;11.28;72.69
54910;BME280;63189;51.240;9.964;2023-03-23T01:46:28;96837.63;;;11.19;73.74
54910;BME280;63189;51.240;9.964;2023-03-23T01:48:56;96821.59;;;10.92;73.45
54910;BME280;63189;51.240;9.964;2023-03-23T01:51:24;96840.41;;;10.99;75.71
54910;BME280;63189;51.240;9.964;2023-03-23T01:53:57;96846.84;;;10.92;76.61
54910;BME280;63189;51.240;9.964;2023-03-23T01:56:27;96854.06;;;10.87;77.70
54910;BME280;63189;51.240;9.964;2023-03-23T01:58:56;96848.22;;;10.82;76.91
54910;BME280;63189;51.240;9.964;2023-03-23T02:01:22;96842.88;;;10.85;77.85
54910;BME280;63189;51.240;9.964;2023-03-23T02:03:52;96852.97;;;10.74;79.03
54910;BME280;63189;51.240;9.964;2023-03-23T02:06:18;96843.44;;;10.73;77.23
54910;BME280;63189;51.240;9.964;2023-03-23T02:08:44;96853.88;;;10.73;78.32
54910;BME280;63189;51.240;9.964;2023-03-23T02:11:18;96828.13;;;10.66;78.58
54910;BME280;63189;51.240;9.964;2023-03-23T02:13:44;96847.03;;;10.70;78.60
54910;BME280;63189;51.240;9.964;2023-03-23T02:16:14;96840.16;;;10.69;79.44
54910;BME280;63189;51.240;9.964;2023-03-23T02:26:46;96856.22;;;10.60;79.11
54910;BME280;63189;51.240;9.964;2023-03-23T02:29:35;96848.34;;;10.61;79.28
54910;BME280;63189;51.240;9.964;2023-03-23T02:34:59;96832.84;;;10.58;79.07
54910;BME280;63189;51.240;9.964;2023-03-23T02:37:31;96834.25;;;10.65;79.05
54910;BME280;63189;51.240;9.964;2023-03-23T02:42:34;96817.50;;;10.52;79.48
54910;BME280;63189;51.240;9.964;2023-03-23T02:45:07;96837.22;;;10.58;79.48
54910;BME280;63189;51.240;9.964;2023-03-23T02:47:36;96848.50;;;10.58;79.31
54910;BME280;63189;51.240;9.964;2023-03-23T02:50:03;96845.88;;;10.58;79.49
54910;BME280;63189;51.240;9.964;2023-03-23T02:52:31;96843.44;;;10.55;79.79
54910;BME280;63189;51.240;9.964;2023-03-23T02:54:58;96834.06;;;10.51;79.68
54910;BME280;63189;51.240;9.964;2023-03-23T02:57:25;96810.16;;;10.43;79.56
54910;BME280;63189;51.240;9.964;2023-03-23T02:59:53;96826.88;;;10.56;79.67
54910;BME280;63189;51.240;9.964;2023-03-23T03:02:23;96819.25;;;10.52;80.52
54910;BME280;63189;51.240;9.964;2023-03-23T03:13:22;96844.78;;;10.45;81.84
54910;BME280;63189;51.240;9.964;2023-03-23T03:18:37;96830.25;;;10.22;85.69
54910;BME280;63189;51.240;9.964;2023-03-23T03:21:07;96838.53;;;10.11;88.32
54910;BME280;63189;51.240;9.964;2023-03-23T03:23:36;96818.41;;;9.96;89.30
54910;BME280;63189;51.240;9.964;2023-03-23T03:26:03;96835.69;;;9.97;91.79
54910;BME280;63189;51.240;9.964;2023-03-23T03:28:31;96826.13;;;9.79;93.01
54910;BME280;63189;51.240;9.964;2023-03-23T03:31:01;96832.06;;;9.82;94.57
54910;BME280;63189;51.240;9.964;2023-03-23T03:33:28;96821.22;;;9.73;94.74
54910;BME280;63189;51.240;9.964;2023-03-23T03:35:57;96827.44;;;9.69;96.61
54910;BME280;63189;51.240;9.964;2023-03-23T03:38:24;96833.56;;;9.68;97.41
54910;BME280;63189;51.240;9.964;2023-03-23T03:40:51;96831.19;;;9.63;97.36
54910;BME280;63189;51.240;9.964;2023-03-23T03:43:17;96833.34;;;9.53;98.59
54910;BME280;63189;51.240;9.964;2023-03-23T03:45:42;96814.06;;;9.39;99.04
54910;BME280;63189;51.240;9.964;2023-03-23T03:48:08;96828.22;;;9.52;99.84
54910;BME280;63189;51.240;9.964;2023-03-23T03:50:33;96838.78;;;9.49;100.00
54910;BME280;63189;51.240;9.964;2023-03-23T03:52:59;96831.94;;;9.26;100.00
54910;BME280;63189;51.240;9.964;2023-03-23T03:55:25;96846.91;;;9.41;100.00
54910;BME280;63189;51.240;9.964;2023-03-23T03:57:55;96859.78;;;9.44;100.00
54910;BME280;63189;51.240;9.964;2023-03-23T04:00:22;96864.53;;;9.35;100.00
54910;BME280;63189;51.240;9.964;2023-03-23T04:02:49;96843.63;;;9.36;100.00
54910;BME280;63189;51.240;9.964;2023-03-23T04:05:20;96850.34;;;9.42;100.00
54910;BME280;63189;51.240;9.964;2023-03-23T04:07:46;96862.75;;;9.35;100.00
54910;BME280;63189;51.240;9.964;2023-03-23T04:10:15;96808.97;;;8.96;100.00
54910;BME280;63189;51.240;9.964;2023-03-23T04:12:41;96851.34;;;9.19;100.00
54910;BME280;63189;51.240;9.964;2023-03-23T04:15:07;96860.63;;;9.24;100.00
54910;BME280;63189;51.240;9.964;2023-03-23T04:17:33;96859.78;;;9.24;100.00
54910;BME280;63189;51.240;9.964;2023-03-23T04:19:58;96845.34;;;9.17;100.00
54910;BME280;63189;51.240;9.964;2023-03-23T04:22:28;96865.50;;;9.12;100.00
54910;BME280;63189;51.240;9.964;2023-03-23T04:24:59;96864.53;;;9.14;100.00
54910;BME280;63189;51.240;9.964;2023-03-23T04:27:28;96833.75;;;8.83;100.00
54910;BME280;63189;51.240;9.964;2023-03-23T04:29:57;96877.00;;;9.06;100.00
54910;BME280;63189;51.240;9.964;2023-03-23T04:32:27;96857.31;;;9.01;100.00
54910;BME280;63189;51.240;9.964;2023-03-23T04:34:58;96885.66;;;9.07;100.00
54910;BME280;63189;51.240;9.964;2023-03-23T04:37:25;96884.84;;;9.05;100.00
54910;BME280;63189;51.240;9.964;2023-03-23T04:39:54;96875.66;;;8.98;100.00
54910;BME280;63189;51.240;9.964;2023-03-23T04:42:29;96879.25;;;8.93;100.00
54910;BME280;63189;51.240;9.964;2023-03-23T04:44:56;96895.63;;;8.95;100.00
54910;BME280;63189;51.240;9.964;2023-03-23T04:47:23;96901.69;;;8.96;100.00
54910;BME280;63189;51.240;9.964;2023-03-23T04:49:49;96886.53;;;8.85;100.00
54910;BME280;63189;51.240;9.964;2023-03-23T04:52:14;96862.63;;;8.77;100.00
54910;BME280;63189;51.240;9.964;2023-03-23T04:54:40;96880.44;;;8.86;100.00
54910;BME280;63189;51.240;9.964;2023-03-23T04:57:05;96846.63;;;8.66;100.00
54910;BME280;63189;51.240;9.964;2023-03-23T04:59:32;96862.69;;;8.76;100.00
54910;BME280;63189;51.240;9.964;2023-03-23T05:01:58;96881.22;;;8.88;100.00
54910;BME280;63189;51.240;9.964;2023-03-23T05:04:23;96871.97;;;8.81;100.00
54910;BME280;63189;51.240;9.964;2023-03-23T05:06:50;96855.97;;;8.70;100.00
54910;BME280;63189;51.240;9.964;2023-03-23T05:09:16;96881.53;;;8.81;100.00
54910;BME280;63189;51.240;9.964;2023-03-23T05:11:41;96880.69;;;8.80;100.00
54910;BME280;63189;51.240;9.964;2023-03-23T05:14:06;96875.69;;;8.76;100.00
54910;BME280;63189;51.240;9.964;2023-03-23T05:16:32;96862.22;;;8.66;100.00
54910;BME280;63189;51.240;9.964;2023-03-23T05:18:57;96862.91;;;8.70;100.00
54910;BME280;63189;51.240;9.964;2023-03-23T05:21:23;96862.06;;;8.69;100.00
54910;BME280;63189;51.240;9.964;2023-03-23T05:23:48;96872.47;;;8.69;100.00
54910;BME280;63189;51.240;9.964;2023-03-23T05:26:23;96873.69;;;8.60;100.00
54910;BME280;63189;51.240;9.964;2023-03-23T05:28:54;96884.78;;;8.64;100.00
54910;BME280;63189;51.240;9.964;2023-03-23T05:31:21;96880.69;;;8.58;100.00
54910;BME280;63189;51.240;9.964;2023-03-23T05:33:47;96871.38;;;8.53;100.00
54910;BME280;63189;51.240;9.964;2023-03-23T05:36:12;96861.97;;;8.50;100.00
54910;BME280;63189;51.240;9.964;2023-03-23T05:38:39;96873.03;;;8.55;100.00
54910;BME280;63189;51.240;9.964;2023-03-23T05:41:07;96868.69;;;8.56;100.00
54910;BME280;63189;51.240;9.964;2023-03-23T05:43:33;96845.19;;;8.37;100.00
54910;BME280;63189;51.240;9.964;2023-03-23T05:45:59;96813.38;;;8.30;100.00
54910;BME280;63189;51.240;9.964;2023-03-23T05:48:24;96846.38;;;8.50;100.00
54910;BME280;63189;51.240;9.964;2023-03-23T05:50:50;96849.28;;;8.43;100.00
54910;BME280;63189;51.240;9.964;2023-03-23T05:53:15;96845.88;;;8.41;100.00
54910;BME280;63189;51.240;9.964;2023-03-23T05:55:41;96825.38;;;8.33;100.00
54910;BME280;63189;51.240;9.964;2023-03-23T05:58:06;96828.63;;;8.39;100.00
54910;BME280;63189;51.240;9.964;2023-03-23T06:00:32;96812.72;;;8.25;100.00
54910;BME280;63189;51.240;9.964;2023-03-23T06:02:58;96827.97;;;8.33;100.00
54910;BME280;63189;51.240;9.964;2023-03-23T06:05:23;96819.53;;;8.28;100.00
54910;BME280;63189;51.240;9.964;2023-03-23T06:07:50;96836.59;;;8.35;100.00
54910;BME280;63189;51.240;9.964;2023-03-23T06:10:16;96835.63;;;8.37;100.00
54910;BME280;63189;51.240;9.964;2023-03-23T06:12:41;96836.59;;;8.33;100.00
54910;BME280;63189;51.240;9.964;2023-03-23T06:15:08;96840.91;;;8.36;100.00
54910;BME280;63189;51.240;9.964;2023-03-23T06:17:34;96840.97;;;8.34;100.00
54910;BME280;63189;51.240;9.964;2023-03-23T06:20:03;96843.13;;;8.22;100.00
54910;BME280;63189;51.240;9.964;2023-03-23T06:22:29;96854.78;;;8.35;100.00
54910;BME280;63189;51.240;9.964;2023-03-23T06:24:55;96851.41;;;8.31;100.00
54910;BME280;63189;51.240;9.964;2023-03-23T06:27:22;96842.78;;;8.31;100.00
54910;BME280;63189;51.240;9.964;2023-03-23T06:29:47;96863.16;;;8.42;100.00
54910;BME280;63189;51.240;9.964;2023-03-23T06:32:14;96813.72;;;8.21;100.00
54910;BME280;63189;51.240;9.964;2023-03-23T06:34:41;96853.69;;;8.41;100.00
54910;BME280;63189;51.240;9.964;2023-03-23T06:37:09;96840.31;;;8.28;100.00
54910;BME280;63189;51.240;9.964;2023-03-23T06:39:35;96832.97;;;8.39;100.00
54910;BME280;63189;51.240;9.964;2023-03-23T06:42:02;96834.78;;;8.37;100.00
54910;BME280;63189;51.240;9.964;2023-03-23T06:44:28;96845.97;;;8.39;100.00
54910;BME280;63189;51.240;9.964;2023-03-23T06:46:53;96814.72;;;8.41;100.00
54910;BME280;63189;51.240;9.964;2023-03-23T06:49:18;96824.09;;;8.45;100.00
54910;BME280;63189;51.240;9.964;2023-03-23T06:51:44;96837.09;;;8.45;100.00
54910;BME280;63189;51.240;9.964;2023-03-23T06:54:10;96842.94;;;8.50;100.00
54910;BME280;63189;51.240;9.964;2023-03-23T06:56:35;96839.63;;;8.46;100.00
54910;BME280;63189;51.240;9.964;2023-03-23T06:59:01;96822.66;;;8.37;100.00
54910;BME280;63189;51.240;9.964;2023-03-23T07:01:26;96845.28;;;8.56;100.00
54910;BME280;63189;51.240;9.964;2023-03-23T07:03:54;96850.38;;;8.59;100.00
54910;BME280;63189;51.240;9.964;2023-03-23T07:06:21;96855.31;;;8.65;100.00
54910;BME280;63189;51.240;9.964;2023-03-23T07:08:46;96846.63;;;8.66;100.00
54910;BME280;63189;51.240;9.964;2023-03-23T07:11:12;96814.00;;;8.59;100.00
54910;BME280;63189;51.240;9.964;2023-03-23T07:13:38;96859.66;;;8.86;100.00
54910;BME280;63189;51.240;9.964;2023-03-23T07:16:07;96846.31;;;8.94;100.00
54910;BME280;63189;51.240;9.964;2023-03-23T07:18:32;96840.66;;;9.05;100.00
54910;BME280;63189;51.240;9.964;2023-03-23T07:20:58;96792.19;;;8.83;100.00
54910;BME280;63189;51.240;9.964;2023-03-23T07:23:24;96829.25;;;9.09;100.00
54910;BME280;63189;51.240;9.964;2023-03-23T07:25:50;96852.72;;;9.07;100.00
54910;BME280;63189;51.240;9.964;2023-03-23T07:28:16;96829.69;;;8.98;100.00
54910;BME280;63189;51.240;9.964;2023-03-23T07:30:42;96859.25;;;9.16;100.00
54910;BME280;63189;51.240;9.964;2023-03-23T07:33:09;96849.22;;;9.27;100.00
54910;BME280;63189;51.240;9.964;2023-03-23T07:35:34;96858.47;;;9.34;100.00
54910;BME280;63189;51.240;9.964;2023-03-23T07:38:01;96862.50;;;9.41;100.00
54910;BME280;63189;51.240;9.964;2023-03-23T07:40:27;96854.78;;;9.40;100.00
54910;BME280;63189;51.240;9.964;2023-03-23T07:42:56;96867.31;;;9.50;100.00
54910;BME280;63189;51.240;9.964;2023-03-23T07:45:22;96821.91;;;9.18;100.00
54910;BME280;63189;51.240;9.964;2023-03-23T07:47:48;96822.00;;;9.15;100.00
54910;BME280;63189;51.240;9.964;2023-03-23T07:50:13;96870.25;;;9.43;100.00
54910;BME280;63189;51.240;9.964;2023-03-23T07:52:40;96855.81;;;9.36;100.00
54910;BME280;63189;51.240;9.964;2023-03-23T07:55:08;96865.03;;;9.43;100.00
54910;BME280;63189;51.240;9.964;2023-03-23T07:57:34;96862.38;;;9.44;100.00
54910;BME280;63189;51.240;9.964;2023-03-23T08:00:00;96883.31;;;9.41;100.00
54910;BME280;63189;51.240;9.964;2023-03-23T08:02:28;96869.41;;;9.42;100.00
54910;BME280;63189;51.240;9.964;2023-03-23T08:04:53;96864.97;;;9.44;100.00
54910;BME280;63189;51.240;9.964;2023-03-23T08:07:19;96877.44;;;9.57;100.00
54910;BME280;63189;51.240;9.964;2023-03-23T08:09:46;96867.75;;;9.60;100.00
54910;BME280;63189;51.240;9.964;2023-03-23T08:12:13;96870.41;;;9.59;100.00
54910;BME280;63189;51.240;9.964;2023-03-23T08:14:39;96878.63;;;9.70;100.00
54910;BME280;63189;51.240;9.964;2023-03-23T08:17:07;96883.53;;;9.76;100.00
54910;BME280;63189;51.240;9.964;2023-03-23T08:19:33;96885.81;;;9.83;100.00
54910;BME280;63189;51.240;9.964;2023-03-23T08:22:03;96884.16;;;10.01;100.00
54910;BME280;63189;51.240;9.964;2023-03-23T08:24:30;96886.19;;;10.13;100.00
54910;BME280;63189;51.240;9.964;2023-03-23T08:26:55;96907.25;;;10.28;100.00
54910;BME280;63189;51.240;9.964;2023-03-23T08:29:21;96898.84;;;10.21;100.00
54910;BME280;63189;51.240;9.964;2023-03-23T08:31:46;96882.50;;;10.18;100.00
54910;BME280;63189;51.240;9.964;2023-03-23T08:34:12;96890.19;;;10.21;100.00
54910;BME280;63189;51.240;9.964;2023-03-23T08:36:37;96877.97;;;10.23;100.00
54910;BME280;63189;51.240;9.964;2023-03-23T08:39:03;96900.63;;;10.39;100.00
54910;BME280;63189;51.240;9.964;2023-03-23T08:41:30;96901.03;;;10.49;100.00
54910;BME280;63189;51.240;9.964;2023-03-23T08:43:56;96857.91;;;10.25;100.00
54910;BME280;63189;51.240;9.964;2023-03-23T08:46:22;96890.34;;;10.36;100.00
54910;BME280;63189;51.240;9.964;2023-03-23T08:48:47;96898.94;;;10.57;100.00
54910;BME280;63189;51.240;9.964;2023-03-23T08:51:12;96880.00;;;10.54;100.00
54910;BME280;63189;51.240;9.964;2023-03-23T08:53:38;96891.28;;;10.72;100.00
54910;BME280;63189;51.240;9.964;2023-03-23T08:56:05;96914.63;;;10.75;100.00
54910;BME280;63189;51.240;9.964;2023-03-23T08:58:31;96900.88;;;10.71;100.00
54910;BME280;63189;51.240;9.964;2023-03-23T09:00:56;96897.81;;;10.63;100.00
54910;BME280;63189;51.240;9.964;2023-03-23T09:03:22;96901.47;;;10.59;100.00
54910;BME280;63189;51.240;9.964;2023-03-23T09:05:48;96909.53;;;10.72;100.00
54910;BME280;63189;51.240;9.964;2023-03-23T09:08:14;96909.41;;;10.75;100.00
54910;BME280;63189;51.240;9.964;2023-03-23T09:10:39;96908.78;;;10.69;100.00
54910;BME280;63189;51.240;9.964;2023-03-23T09:13:05;96894.34;;;10.62;100.00
54910;BME280;63189;51.240;9.964;2023-03-23T09:15:31;96900.19;;;10.67;100.00
54910;BME280;63189;51.240;9.964;2023-03-23T09:17:58;96904.25;;;10.73;100.00
54910;BME280;63189;51.240;9.964;2023-03-23T09:20:25;96906.50;;;10.81;100.00
54910;BME280;63189;51.240;9.964;2023-03-23T09:22:54;96890.09;;;10.79;100.00
54910;BME280;63189;51.240;9.964;2023-03-23T09:25:21;96897.63;;;10.85;100.00
54910;BME280;63189;51.240;9.964;2023-03-23T09:27:53;96917.13;;;10.95;100.00
54910;BME280;63189;51.240;9.964;2023-03-23T09:30:22;96909.50;;;10.90;100.00
54910;BME280;63189;51.240;9.964;2023-03-23T09:32:49;96874.69;;;10.74;100.00
54910;BME280;63189;51.240;9.964;2023-03-23T09:35:15;96927.16;;;11.03;98.99
54910;BME280;63189;51.240;9.964;2023-03-23T09:37:43;96901.69;;;10.90;98.79
54910;BME280;63189;51.240;9.964;2023-03-23T09:40:15;96894.53;;;10.94;96.43
54910;BME280;63189;51.240;9.964;2023-03-23T09:43:07;96935.03;;;11.20;99.85
54910;BME280;63189;51.240;9.964;2023-03-23T09:51:12;96913.97;;;11.23;93.86
54910;BME280;63189;51.240;9.964;2023-03-23T09:53:42;96915.53;;;11.27;92.60
54910;BME280;63189;51.240;9.964;2023-03-23T09:56:14;96904.31;;;11.42;93.71
54910;BME280;63189;51.240;9.964;2023-03-23T10:01:48;96918.84;;;11.48;91.69
54910;BME280;63189;51.240;9.964;2023-03-23T10:07:21;96921.88;;;11.56;92.46
54910;BME280;63189;51.240;9.964;2023-03-23T10:09:53;96909.31;;;11.47;89.59
54910;BME280;63189;51.240;9.964;2023-03-23T10:12:27;96918.03;;;11.63;91.62
54910;BME280;63189;51.240;9.964;2023-03-23T10:18:01;96921.59;;;11.79;89.52
54910;BME280;63189;51.240;9.964;2023-03-23T10:25:37;96911.13;;;11.62;88.92
54910;BME280;63189;51.240;9.964;2023-03-23T10:28:12;96923.34;;;11.62;87.45
54910;BME280;63189;51.240;9.964;2023-03-23T10:30:40;96914.03;;;11.73;87.05
54910;BME280;63189;51.240;9.964;2023-03-23T10:33:26;96931.50;;;11.90;88.23
54910;BME280;63189;51.240;9.964;2023-03-23T10:35:56;96917.59;;;11.90;87.07
54910;BME280;63189;51.240;9.964;2023-03-23T10:38:31;96912.91;;;11.79;85.79
54910;BME280;63189;51.240;9.964;2023-03-23T10:41:24;96916.44;;;11.78;88.01
54910;BME280;63189;51.240;9.964;2023-03-23T10:43:50;96918.25;;;11.76;86.39
54910;BME280;63189;51.240;9.964;2023-03-23T10:46:39;96898.75;;;11.66;87.60
54910;BME280;63189;51.240;9.964;2023-03-23T10:49:12;96920.34;;;11.87;87.03
54910;BME280;63189;51.240;9.964;2023-03-23T10:51:44;96912.44;;;11.88;87.81
54910;BME280;63189;51.240;9.964;2023-03-23T10:54:12;96930.22;;;11.97;89.03
54910;BME280;63189;51.240;9.964;2023-03-23T10:56:42;96935.22;;;12.02;87.73
54910;BME280;63189;51.240;9.964;2023-03-23T10:59:27;96936.75;;;12.06;87.96
54910;BME280;63189;51.240;9.964;2023-03-23T11:01:56;96941.84;;;11.92;85.50
54910;BME280;63189;51.240;9.964;2023-03-23T11:04:23;96954.25;;;11.88;83.79
54910;BME280;63189;51.240;9.964;2023-03-23T11:06:52;96955.47;;;11.81;85.23
54910;BME280;63189;51.240;9.964;2023-03-23T11:09:20;96936.78;;;11.71;83.05
54910;BME280;63189;51.240;9.964;2023-03-23T11:11:51;96954.91;;;11.57;84.24
54910;BME280;63189;51.240;9.964;2023-03-23T11:16:51;96945.84;;;11.30;86.99
54910;BME280;63189;51.240;9.964;2023-03-23T11:19:35;96953.03;;;11.24;89.37
54910;BME280;63189;51.240;9.964;2023-03-23T11:24:35;96964.47;;;11.22;91.12
54910;BME280;63189;51.240;9.964;2023-03-23T11:27:03;96958.41;;;11.21;88.40
54910;BME280;63189;51.240;9.964;2023-03-23T11:29:32;96954.03;;;11.22;87.54
54910;BME280;63189;51.240;9.964;2023-03-23T11:34:30;96937.59;;;11.03;85.51
54910;BME280;63189;51.240;9.964;2023-03-23T11:37:03;96958.19;;;11.09;86.71
54910;BME280;63189;51.240;9.964;2023-03-23T11:39:45;96983.09;;;11.14;86.75
54910;BME280;63189;51.240;9.964;2023-03-23T11:42:16;96976.06;;;11.16;86.91
54910;BME280;63189;51.240;9.964;2023-03-23T11:44:43;96973.31;;;11.19;87.43
54910;BME280;63189;51.240;9.964;2023-03-23T11:47:36;96960.41;;;11.16;90.35
54910;BME280;63189;51.240;9.964;2023-03-23T11:50:12;96943.06;;;11.33;90.03
54910;BME280;63189;51.240;9.964;2023-03-23T11:55:16;96934.72;;;11.61;89.11
54910;BME280;63189;51.240;9.964;2023-03-23T11:57:44;96920.97;;;11.57;88.99
54910;BME280;63189;51.240;9.964;2023-03-23T12:00:17;96930.50;;;11.58;82.71
54910;BME280;63189;51.240;9.964;2023-03-23T12:02:57;96939.47;;;11.70;82.49
54910;BME280;63189;51.240;9.964;2023-03-23T12:05:32;96898.47;;;11.54;82.30
54910;BME280;63189;51.240;9.964;2023-03-23T12:30:43;96951.00;;;12.16;83.74
54910;BME280;63189;51.240;9.964;2023-03-23T12:36:04;96969.50;;;12.29;85.30
54910;BME280;63189;51.240;9.964;2023-03-23T12:43:51;96945.94;;;11.80;86.39
54910;BME280;63189;51.240;9.964;2023-03-23T12:49:16;96944.50;;;12.07;88.12
54910;BME280;63189;51.240;9.964;2023-03-23T12:51:57;96941.31;;;12.18;86.86
54910;BME280;63189;51.240;9.964;2023-03-23T12:54:29;96929.63;;;12.25;86.58
54910;BME280;63189;51.240;9.964;2023-03-23T12:57:09;96932.75;;;12.32;87.11
54910;BME280;63189;51.240;9.964;2023-03-23T13:00:05;96944.75;;;12.52;85.94
54910;BME280;63189;51.240;9.964;2023-03-23T13:02:47;96934.81;;;12.74;85.80
54910;BME280;63189;51.240;9.964;2023-03-23T13:08:36;96927.78;;;12.59;83.76
54910;BME280;63189;51.240;9.964;2023-03-23T13:10:47;96931.91;;;12.47;83.44
54910;BME280;63189;51.240;9.964;2023-03-23T13:13:17;96959.44;;;12.54;84.42
54910;BME280;63189;51.240;9.964;2023-03-23T13:16:11;96943.72;;;12.38;84.83
54910;BME280;63189;51.240;9.964;2023-03-23T13:18:54;96931.13;;;12.29;85.23
54910;BME280;63189;51.240;9.964;2023-03-23T13:21:43;96908.19;;;12.19;86.74
54910;BME280;63189;51.240;9.964;2023-03-23T13:24:19;96932.16;;;12.27;85.43
54910;BME280;63189;51.240;9.964;2023-03-23T13:26:49;96921.03;;;12.23;85.15
54910;BME280;63189;51.240;9.964;2023-03-23T13:31:44;96929.22;;;12.33;87.08
54910;BME280;63189;51.240;9.964;2023-03-23T13:34:18;96925.75;;;12.32;85.38
54910;BME280;63189;51.240;9.964;2023-03-23T13:37:03;96910.97;;;12.16;85.84
54910;BME280;63189;51.240;9.964;2023-03-23T13:39:33;96904.63;;;12.04;85.92
54910;BME280;63189;51.240;9.964;2023-03-23T13:47:26;96921.47;;;12.31;86.66
54910;BME280;63189;51.240;9.964;2023-03-23T14:03:17;96902.06;;;12.67;85.13
54910;BME280;63189;51.240;9.964;2023-03-23T14:18:55;96932.09;;;12.44;85.35
54910;BME280;63189;51.240;9.964;2023-03-23T14:21:34;96938.34;;;12.41;84.74
54910;BME280;63189;51.240;9.964;2023-03-23T14:24:06;96932.66;;;12.33;85.14
54910;BME280;63189;51.240;9.964;2023-03-23T14:26:33;96909.03;;;12.19;85.04
54910;BME280;63189;51.240;9.964;2023-03-23T14:29:03;96933.34;;;12.21;86.27
54910;BME280;63189;51.240;9.964;2023-03-23T14:31:29;96939.53;;;12.19;86.58
54910;BME280;63189;51.240;9.964;2023-03-23T14:33:56;96921.34;;;12.17;85.21
54910;BME280;63189;51.240;9.964;2023-03-23T14:36:29;96925.22;;;12.26;86.55
54910;BME280;63189;51.240;9.964;2023-03-23T14:39:02;96911.59;;;12.21;85.25
54910;BME280;63189;51.240;9.964;2023-03-23T14:41:30;96920.09;;;12.24;84.83
54910;BME280;63189;51.240;9.964;2023-03-23T14:43:57;96897.72;;;12.19;84.81
54910;BME280;63189;51.240;9.964;2023-03-23T14:46:25;96924.00;;;12.33;85.01
54910;BME280;63189;51.240;9.964;2023-03-23T14:48:51;96928.28;;;12.34;83.96
54910;BME280;63189;51.240;9.964;2023-03-23T14:51:19;96937.72;;;12.36;84.75
54910;BME280;63189;51.240;9.964;2023-03-23T14:53:45;96909.47;;;12.27;81.56
54910;BME280;63189;51.240;9.964;2023-03-23T14:56:15;96922.97;;;12.35;82.19
54910;BME280;63189;51.240;9.964;2023-03-23T14:58:50;96923.72;;;12.37;83.13
54910;BME280;63189;51.240;9.964;2023-03-23T15:01:42;96916.63;;;12.39;81.79
54910;BME280;63189;51.240;9.964;2023-03-23T15:04:27;96919.09;;;12.42;81.73
54910;BME280;63189;51.240;9.964;2023-03-23T15:07:00;96928.38;;;12.48;81.56
54910;BME280;63189;51.240;9.964;2023-03-23T15:09:28;96895.31;;;12.31;79.86
54910;BME280;63189;51.240;9.964;2023-03-23T15:12:02;96871.81;;;12.31;79.36
54910;BME280;63189;51.240;9.964;2023-03-23T15:14:59;96903.25;;;12.46;78.97
54910;BME280;63189;51.240;9.964;2023-03-23T15:17:28;96906.78;;;12.45;81.53
54910;BME280;63189;51.240;9.964;2023-03-23T15:19:56;96926.88;;;12.44;79.49
54910;BME280;63189;51.240;9.964;2023-03-23T15:22:28;96886.88;;;12.26;80.28
54910;BME280;63189;51.240;9.964;2023-03-23T15:27:51;96915.38;;;12.47;80.92
54910;BME280;63189;51.240;9.964;2023-03-23T15:33:11;96936.13;;;12.50;81.67
54910;BME280;63189;51.240;9.964;2023-03-23T15:35:39;96925.00;;;12.46;82.35